sensor_id;sensor_type;location;lat;lon;timestamp;P1;durP1;ratioP1;P2;durP2;ratioP2
28166;SDS011;15455;53.376;-6.262;2023-04-06T00:01:51;5.20;;;1.58;;
28166;SDS011;15455;53.376;-6.262;2023-04-06T00:04:37;6.85;;;1.58;;
28166;SDS011;15455;53.376;-6.262;2023-04-06T00:07:22;6.45;;;1.60;;
28166;SDS011;15455;53.376;-6.262;2023-04-06T00:10:08;7.03;;;1.63;;
28166;SDS011;15455;53.376;-6.262;2023-04-06T00:12:54;12.60;;;2.08;;
28166;SDS011;15455;53.376;-6.262;2023-04-06T00:15:41;6.47;;;2.20;;
28166;SDS011;15455;53.376;-6.262;2023-04-06T00:18:26;6.20;;;1.60;;
28166;SDS011;15455;53.376;-6.262;2023-04-06T00:21:13;7.82;;;2.67;;
28166;SDS011;15455;53.376;-6.262;2023-04-06T00:23:59;13.80;;;2.50;;
28166;SDS011;15455;53.376;-6.262;2023-04-06T00:26:45;4.68;;;1.67;;
28166;SDS011;15455;53.376;-6.262;2023-04-06T00:29:30;3.65;;;1.27;;
28166;SDS011;15455;53.376;-6.262;2023-04-06T00:32:15;4.13;;;1.50;;
28166;SDS011;15455;53.376;-6.262;2023-04-06T00:35:02;12.20;;;1.92;;
28166;SDS011;15455;53.376;-6.262;2023-04-06T00:37:48;10.43;;;1.50;;
28166;SDS011;15455;53.376;-6.262;2023-04-06T00:40:33;8.85;;;1.95;;
28166;SDS011;15455;53.376;-6.262;2023-04-06T00:43:20;9.98;;;2.13;;
28166;SDS011;15455;53.376;-6.262;2023-04-06T00:46:05;9.52;;;2.78;;
28166;SDS011;15455;53.376;-6.262;2023-04-06T00:48:51;9.50;;;2.97;;
28166;SDS011;15455;53.376;-6.262;2023-04-06T00:51:36;14.15;;;3.22;;
28166;SDS011;15455;53.376;-6.262;2023-04-06T00:54:22;9.25;;;2.75;;
28166;SDS011;15455;53.376;-6.262;2023-04-06T00:57:08;11.73;;;2.67;;
28166;SDS011;15455;53.376;-6.262;2023-04-06T00:59:55;8.50;;;2.40;;
28166;SDS011;15455;53.376;-6.262;2023-04-06T01:02:41;3.67;;;1.75;;
28166;SDS011;15455;53.376;-6.262;2023-04-06T01:05:28;6.68;;;1.98;;
28166;SDS011;15455;53.376;-6.262;2023-04-06T01:08:15;6.05;;;2.05;;
28166;SDS011;15455;53.376;-6.262;2023-04-06T01:11:02;9.27;;;3.00;;
28166;SDS011;15455;53.376;-6.262;2023-04-06T01:13:47;14.48;;;2.97;;
28166;SDS011;15455;53.376;-6.262;2023-04-06T01:16:45;8.68;;;2.58;;
28166;SDS011;15455;53.376;-6.262;2023-04-06T01:19:34;11.02;;;2.20;;
28166;SDS011;15455;53.376;-6.262;2023-04-06T01:22:21;14.23;;;2.20;;
28166;SDS011;15455;53.376;-6.262;2023-04-06T01:25:14;7.10;;;1.75;;
28166;SDS011;15455;53.376;-6.262;2023-04-06T01:28:20;10.88;;;1.95;;
28166;SDS011;15455;53.376;-6.262;2023-04-06T01:31:15;10.68;;;2.25;;
28166;SDS011;15455;53.376;-6.262;2023-04-06T01:34:07;14.10;;;1.65;;
28166;SDS011;15455;53.376;-6.262;2023-04-06T01:36:53;7.57;;;1.40;;
28166;SDS011;15455;53.376;-6.262;2023-04-06T01:42:40;9.88;;;1.88;;
28166;SDS011;15455;53.376;-6.262;2023-04-06T01:45:29;6.82;;;2.10;;
28166;SDS011;15455;53.376;-6.262;2023-04-06T01:48:22;18.35;;;2.28;;
28166;SDS011;15455;53.376;-6.262;2023-04-06T01:51:07;13.57;;;2.13;;
28166;SDS011;15455;53.376;-6.262;2023-04-06T01:54:02;8.48;;;2.13;;
28166;SDS011;15455;53.376;-6.262;2023-04-06T01:57:00;8.85;;;1.67;;
28166;SDS011;15455;53.376;-6.262;2023-04-06T01:59:54;9.57;;;2.17;;
28166;SDS011;15455;53.376;-6.262;2023-04-06T02:02:57;13.90;;;2.78;;
28166;SDS011;15455;53.376;-6.262;2023-04-06T02:05:45;12.68;;;3.10;;
28166;SDS011;15455;53.376;-6.262;2023-04-06T02:08:54;8.43;;;1.90;;
28166;SDS011;15455;53.376;-6.262;2023-04-06T02:11:40;8.00;;;1.52;;
28166;SDS011;15455;53.376;-6.262;2023-04-06T02:14:25;10.63;;;1.55;;
28166;SDS011;15455;53.376;-6.262;2023-04-06T02:17:14;8.02;;;1.73;;
28166;SDS011;15455;53.376;-6.262;2023-04-06T02:20:00;11.23;;;2.13;;
28166;SDS011;15455;53.376;-6.262;2023-04-06T02:22:47;10.15;;;2.60;;
28166;SDS011;15455;53.376;-6.262;2023-04-06T02:25:32;6.10;;;1.95;;
28166;SDS011;15455;53.376;-6.262;2023-04-06T02:28:18;7.30;;;1.58;;
28166;SDS011;15455;53.376;-6.262;2023-04-06T02:31:04;9.15;;;1.70;;
28166;SDS011;15455;53.376;-6.262;2023-04-06T02:33:49;9.38;;;2.45;;
28166;SDS011;15455;53.376;-6.262;2023-04-06T02:36:35;8.23;;;2.38;;
28166;SDS011;15455;53.376;-6.262;2023-04-06T02:39:20;9.65;;;2.53;;
28166;SDS011;15455;53.376;-6.262;2023-04-06T02:42:06;10.52;;;1.95;;
28166;SDS011;15455;53.376;-6.262;2023-04-06T02:44:53;15.50;;;2.42;;
28166;SDS011;15455;53.376;-6.262;2023-04-06T02:47:44;10.15;;;2.22;;
28166;SDS011;15455;53.376;-6.262;2023-04-06T02:50:33;11.80;;;2.33;;
28166;SDS011;15455;53.376;-6.262;2023-04-06T02:53:23;12.90;;;2.10;;
28166;SDS011;15455;53.376;-6.262;2023-04-06T02:56:08;11.13;;;2.17;;
28166;SDS011;15455;53.376;-6.262;2023-04-06T02:59:03;17.55;;;2.53;;
28166;SDS011;15455;53.376;-6.262;2023-04-06T03:01:50;14.63;;;2.33;;
28166;SDS011;15455;53.376;-6.262;2023-04-06T03:04:36;17.70;;;2.60;;
28166;SDS011;15455;53.376;-6.262;2023-04-06T03:07:28;10.70;;;2.13;;
28166;SDS011;15455;53.376;-6.262;2023-04-06T03:10:13;4.10;;;1.55;;
28166;SDS011;15455;53.376;-6.262;2023-04-06T03:13:01;9.45;;;1.92;;
28166;SDS011;15455;53.376;-6.262;2023-04-06T03:16:05;9.52;;;2.20;;
28166;SDS011;15455;53.376;-6.262;2023-04-06T03:18:52;11.10;;;1.70;;
28166;SDS011;15455;53.376;-6.262;2023-04-06T03:21:39;18.13;;;2.75;;
28166;SDS011;15455;53.376;-6.262;2023-04-06T03:24:25;13.57;;;2.10;;
28166;SDS011;15455;53.376;-6.262;2023-04-06T03:27:10;4.93;;;1.92;;
28166;SDS011;15455;53.376;-6.262;2023-04-06T03:29:59;13.90;;;2.40;;
28166;SDS011;15455;53.376;-6.262;2023-04-06T03:32:49;16.67;;;2.17;;
28166;SDS011;15455;53.376;-6.262;2023-04-06T03:35:37;6.15;;;1.67;;
28166;SDS011;15455;53.376;-6.262;2023-04-06T03:38:23;17.02;;;2.40;;
28166;SDS011;15455;53.376;-6.262;2023-04-06T03:41:09;14.07;;;2.13;;
28166;SDS011;15455;53.376;-6.262;2023-04-06T03:43:56;12.82;;;2.45;;
28166;SDS011;15455;53.376;-6.262;2023-04-06T03:46:41;12.40;;;2.03;;
28166;SDS011;15455;53.376;-6.262;2023-04-06T03:49:28;8.15;;;2.33;;
28166;SDS011;15455;53.376;-6.262;2023-04-06T03:52:16;6.95;;;2.10;;
28166;SDS011;15455;53.376;-6.262;2023-04-06T03:55:01;14.80;;;2.15;;
28166;SDS011;15455;53.376;-6.262;2023-04-06T03:57:47;10.13;;;2.75;;
28166;SDS011;15455;53.376;-6.262;2023-04-06T04:00:33;12.75;;;2.80;;
28166;SDS011;15455;53.376;-6.262;2023-04-06T04:03:18;9.07;;;1.88;;
28166;SDS011;15455;53.376;-6.262;2023-04-06T04:06:04;13.50;;;2.00;;
28166;SDS011;15455;53.376;-6.262;2023-04-06T04:08:51;13.85;;;2.63;;
28166;SDS011;15455;53.376;-6.262;2023-04-06T04:11:37;8.95;;;2.00;;
28166;SDS011;15455;53.376;-6.262;2023-04-06T04:14:22;9.13;;;2.05;;
28166;SDS011;15455;53.376;-6.262;2023-04-06T04:17:08;11.95;;;2.42;;
28166;SDS011;15455;53.376;-6.262;2023-04-06T04:19:53;12.05;;;2.88;;
28166;SDS011;15455;53.376;-6.262;2023-04-06T04:22:39;14.43;;;2.72;;
28166;SDS011;15455;53.376;-6.262;2023-04-06T04:25:26;7.22;;;2.35;;
28166;SDS011;15455;53.376;-6.262;2023-04-06T04:28:11;13.25;;;2.97;;
28166;SDS011;15455;53.376;-6.262;2023-04-06T04:30:59;13.48;;;2.22;;
28166;SDS011;15455;53.376;-6.262;2023-04-06T04:33:48;9.02;;;2.30;;
28166;SDS011;15455;53.376;-6.262;2023-04-06T04:36:41;10.50;;;2.03;;
28166;SDS011;15455;53.376;-6.262;2023-04-06T04:39:37;10.77;;;2.35;;
28166;SDS011;15455;53.376;-6.262;2023-04-06T04:42:24;6.53;;;1.92;;
28166;SDS011;15455;53.376;-6.262;2023-04-06T04:45:13;9.60;;;1.77;;
28166;SDS011;15455;53.376;-6.262;2023-04-06T04:48:00;15.07;;;2.15;;
28166;SDS011;15455;53.376;-6.262;2023-04-06T04:50:54;9.80;;;2.20;;
28166;SDS011;15455;53.376;-6.262;2023-04-06T04:53:44;11.93;;;2.13;;
28166;SDS011;15455;53.376;-6.262;2023-04-06T04:56:43;7.13;;;1.80;;
28166;SDS011;15455;53.376;-6.262;2023-04-06T04:59:46;9.98;;;1.73;;
28166;SDS011;15455;53.376;-6.262;2023-04-06T05:02:35;6.63;;;1.45;;
28166;SDS011;15455;53.376;-6.262;2023-04-06T05:05:34;7.57;;;3.47;;
28166;SDS011;15455;53.376;-6.262;2023-04-06T05:08:22;12.32;;;1.95;;
28166;SDS011;15455;53.376;-6.262;2023-04-06T05:11:07;7.97;;;1.63;;
28166;SDS011;15455;53.376;-6.262;2023-04-06T05:13:59;8.45;;;1.88;;
28166;SDS011;15455;53.376;-6.262;2023-04-06T05:16:46;16.88;;;1.98;;
28166;SDS011;15455;53.376;-6.262;2023-04-06T05:19:31;6.72;;;1.77;;
28166;SDS011;15455;53.376;-6.262;2023-04-06T05:22:18;9.90;;;2.00;;
28166;SDS011;15455;53.376;-6.262;2023-04-06T05:25:11;7.63;;;2.00;;
28166;SDS011;15455;53.376;-6.262;2023-04-06T05:27:57;12.40;;;3.13;;
28166;SDS011;15455;53.376;-6.262;2023-04-06T05:30:47;10.80;;;2.17;;
28166;SDS011;15455;53.376;-6.262;2023-04-06T05:33:33;20.50;;;2.50;;
28166;SDS011;15455;53.376;-6.262;2023-04-06T05:36:23;15.02;;;2.38;;
28166;SDS011;15455;53.376;-6.262;2023-04-06T05:39:10;6.90;;;2.22;;
28166;SDS011;15455;53.376;-6.262;2023-04-06T05:42:04;19.30;;;2.42;;
28166;SDS011;15455;53.376;-6.262;2023-04-06T05:45:17;12.95;;;1.88;;
28166;SDS011;15455;53.376;-6.262;2023-04-06T05:48:09;11.82;;;2.30;;
28166;SDS011;15455;53.376;-6.262;2023-04-06T05:50:55;13.88;;;2.08;;
28166;SDS011;15455;53.376;-6.262;2023-04-06T05:53:48;7.95;;;1.42;;
28166;SDS011;15455;53.376;-6.262;2023-04-06T05:56:33;6.82;;;2.40;;
28166;SDS011;15455;53.376;-6.262;2023-04-06T05:59:20;10.98;;;3.17;;
28166;SDS011;15455;53.376;-6.262;2023-04-06T06:02:05;17.25;;;2.83;;
28166;SDS011;15455;53.376;-6.262;2023-04-06T06:04:56;14.27;;;2.97;;
28166;SDS011;15455;53.376;-6.262;2023-04-06T06:07:43;8.18;;;2.42;;
28166;SDS011;15455;53.376;-6.262;2023-04-06T06:10:29;8.05;;;2.50;;
28166;SDS011;15455;53.376;-6.262;2023-04-06T06:13:16;14.10;;;2.17;;
28166;SDS011;15455;53.376;-6.262;2023-04-06T06:16:02;13.77;;;3.38;;
28166;SDS011;15455;53.376;-6.262;2023-04-06T06:18:53;13.23;;;3.60;;
28166;SDS011;15455;53.376;-6.262;2023-04-06T06:21:39;12.40;;;2.95;;
28166;SDS011;15455;53.376;-6.262;2023-04-06T06:24:25;13.75;;;3.08;;
28166;SDS011;15455;53.376;-6.262;2023-04-06T06:27:11;10.55;;;4.00;;
28166;SDS011;15455;53.376;-6.262;2023-04-06T06:29:56;16.05;;;3.40;;
28166;SDS011;15455;53.376;-6.262;2023-04-06T06:32:42;11.02;;;3.35;;
28166;SDS011;15455;53.376;-6.262;2023-04-06T06:35:28;11.38;;;3.20;;
28166;SDS011;15455;53.376;-6.262;2023-04-06T06:38:17;11.65;;;2.92;;
28166;SDS011;15455;53.376;-6.262;2023-04-06T06:41:07;7.88;;;2.35;;
28166;SDS011;15455;53.376;-6.262;2023-04-06T06:43:54;11.05;;;1.83;;
28166;SDS011;15455;53.376;-6.262;2023-04-06T06:46:40;8.05;;;2.45;;
28166;SDS011;15455;53.376;-6.262;2023-04-06T06:49:25;8.65;;;2.20;;
28166;SDS011;15455;53.376;-6.262;2023-04-06T06:52:11;11.45;;;2.33;;
28166;SDS011;15455;53.376;-6.262;2023-04-06T06:54:56;13.27;;;2.55;;
28166;SDS011;15455;53.376;-6.262;2023-04-06T06:57:42;3.45;;;1.85;;
28166;SDS011;15455;53.376;-6.262;2023-04-06T07:00:28;6.00;;;2.20;;
28166;SDS011;15455;53.376;-6.262;2023-04-06T07:03:14;4.25;;;1.65;;
28166;SDS011;15455;53.376;-6.262;2023-04-06T07:06:00;6.25;;;2.03;;
28166;SDS011;15455;53.376;-6.262;2023-04-06T07:08:46;5.82;;;1.73;;
28166;SDS011;15455;53.376;-6.262;2023-04-06T07:11:32;7.93;;;1.50;;
28166;SDS011;15455;53.376;-6.262;2023-04-06T07:14:18;4.65;;;1.80;;
28166;SDS011;15455;53.376;-6.262;2023-04-06T07:17:04;4.90;;;1.45;;
28166;SDS011;15455;53.376;-6.262;2023-04-06T07:19:49;10.38;;;1.25;;
28166;SDS011;15455;53.376;-6.262;2023-04-06T07:22:38;2.50;;;0.95;;
28166;SDS011;15455;53.376;-6.262;2023-04-06T07:25:25;7.07;;;1.20;;
28166;SDS011;15455;53.376;-6.262;2023-04-06T07:28:10;6.47;;;1.75;;
28166;SDS011;15455;53.376;-6.262;2023-04-06T07:30:56;4.85;;;1.13;;
28166;SDS011;15455;53.376;-6.262;2023-04-06T07:33:42;5.38;;;1.17;;
28166;SDS011;15455;53.376;-6.262;2023-04-06T07:36:28;3.80;;;1.15;;
28166;SDS011;15455;53.376;-6.262;2023-04-06T07:39:13;3.35;;;1.00;;
28166;SDS011;15455;53.376;-6.262;2023-04-06T07:41:59;5.43;;;1.23;;
28166;SDS011;15455;53.376;-6.262;2023-04-06T07:44:45;3.58;;;1.33;;
28166;SDS011;15455;53.376;-6.262;2023-04-06T07:47:31;7.90;;;1.90;;
28166;SDS011;15455;53.376;-6.262;2023-04-06T07:50:17;3.33;;;1.50;;
28166;SDS011;15455;53.376;-6.262;2023-04-06T07:53:02;4.90;;;1.38;;
28166;SDS011;15455;53.376;-6.262;2023-04-06T07:55:48;3.90;;;0.98;;
28166;SDS011;15455;53.376;-6.262;2023-04-06T07:58:34;5.25;;;1.40;;
28166;SDS011;15455;53.376;-6.262;2023-04-06T08:01:19;6.38;;;1.58;;
28166;SDS011;15455;53.376;-6.262;2023-04-06T08:04:05;2.92;;;1.13;;
28166;SDS011;15455;53.376;-6.262;2023-04-06T08:06:51;6.95;;;1.65;;
28166;SDS011;15455;53.376;-6.262;2023-04-06T08:09:36;5.13;;;1.52;;
28166;SDS011;15455;53.376;-6.262;2023-04-06T08:12:22;9.18;;;1.20;;
28166;SDS011;15455;53.376;-6.262;2023-04-06T08:15:07;6.35;;;1.40;;
28166;SDS011;15455;53.376;-6.262;2023-04-06T08:17:53;10.15;;;1.48;;
28166;SDS011;15455;53.376;-6.262;2023-04-06T08:20:42;4.13;;;1.38;;
28166;SDS011;15455;53.376;-6.262;2023-04-06T08:23:27;10.68;;;1.92;;
28166;SDS011;15455;53.376;-6.262;2023-04-06T08:26:13;5.20;;;1.10;;
28166;SDS011;15455;53.376;-6.262;2023-04-06T08:28:58;5.82;;;1.52;;
28166;SDS011;15455;53.376;-6.262;2023-04-06T08:31:43;10.95;;;1.65;;
28166;SDS011;15455;53.376;-6.262;2023-04-06T08:34:29;9.35;;;1.52;;
28166;SDS011;15455;53.376;-6.262;2023-04-06T08:37:14;4.85;;;1.20;;
28166;SDS011;15455;53.376;-6.262;2023-04-06T08:40:00;5.15;;;1.52;;
28166;SDS011;15455;53.376;-6.262;2023-04-06T08:42:49;8.20;;;1.52;;
28166;SDS011;15455;53.376;-6.262;2023-04-06T08:45:38;2.27;;;1.73;;
28166;SDS011;15455;53.376;-6.262;2023-04-06T08:48:24;2.38;;;1.20;;
28166;SDS011;15455;53.376;-6.262;2023-04-06T08:51:10;3.40;;;1.42;;
28166;SDS011;15455;53.376;-6.262;2023-04-06T08:53:57;10.52;;;1.48;;
28166;SDS011;15455;53.376;-6.262;2023-04-06T08:56:44;6.05;;;1.35;;
28166;SDS011;15455;53.376;-6.262;2023-04-06T08:59:31;5.75;;;1.50;;
28166;SDS011;15455;53.376;-6.262;2023-04-06T09:02:17;10.98;;;1.40;;
28166;SDS011;15455;53.376;-6.262;2023-04-06T09:05:04;5.78;;;1.23;;
28166;SDS011;15455;53.376;-6.262;2023-04-06T09:07:53;8.40;;;1.38;;
28166;SDS011;15455;53.376;-6.262;2023-04-06T09:10:40;3.40;;;0.93;;
28166;SDS011;15455;53.376;-6.262;2023-04-06T09:13:26;6.15;;;1.02;;
28166;SDS011;15455;53.376;-6.262;2023-04-06T09:16:11;8.75;;;1.58;;
28166;SDS011;15455;53.376;-6.262;2023-04-06T09:19:03;5.88;;;1.05;;
28166;SDS011;15455;53.376;-6.262;2023-04-06T09:27:32;5.30;;;1.20;;
28166;SDS011;15455;53.376;-6.262;2023-04-06T09:30:19;6.82;;;1.48;;
28166;SDS011;15455;53.376;-6.262;2023-04-06T09:33:04;4.43;;;1.40;;
28166;SDS011;15455;53.376;-6.262;2023-04-06T09:35:50;5.28;;;1.15;;
28166;SDS011;15455;53.376;-6.262;2023-04-06T09:38:50;7.35;;;1.77;;
28166;SDS011;15455;53.376;-6.262;2023-04-06T09:41:38;6.82;;;1.83;;
28166;SDS011;15455;53.376;-6.262;2023-04-06T09:44:24;5.05;;;1.52;;
28166;SDS011;15455;53.376;-6.262;2023-04-06T09:47:09;4.50;;;1.33;;
28166;SDS011;15455;53.376;-6.262;2023-04-06T09:49:58;10.63;;;1.98;;
28166;SDS011;15455;53.376;-6.262;2023-04-06T09:52:49;6.50;;;1.05;;
28166;SDS011;15455;53.376;-6.262;2023-04-06T09:55:42;8.73;;;1.38;;
28166;SDS011;15455;53.376;-6.262;2023-04-06T09:58:32;5.22;;;1.08;;
28166;SDS011;15455;53.376;-6.262;2023-04-06T10:01:21;5.38;;;1.30;;
28166;SDS011;15455;53.376;-6.262;2023-04-06T10:07:29;10.30;;;1.20;;
28166;SDS011;15455;53.376;-6.262;2023-04-06T10:10:14;8.25;;;1.08;;
28166;SDS011;15455;53.376;-6.262;2023-04-06T10:13:00;5.60;;;0.77;;
28166;SDS011;15455;53.376;-6.262;2023-04-06T10:15:46;7.00;;;0.77;;
28166;SDS011;15455;53.376;-6.262;2023-04-06T10:18:32;7.40;;;1.00;;
28166;SDS011;15455;53.376;-6.262;2023-04-06T10:21:19;4.40;;;0.95;;
28166;SDS011;15455;53.376;-6.262;2023-04-06T10:24:07;4.75;;;1.02;;
28166;SDS011;15455;53.376;-6.262;2023-04-06T10:26:59;5.13;;;0.70;;
28166;SDS011;15455;53.376;-6.262;2023-04-06T10:29:47;3.42;;;0.82;;
28166;SDS011;15455;53.376;-6.262;2023-04-06T10:32:36;7.78;;;0.63;;
28166;SDS011;15455;53.376;-6.262;2023-04-06T10:35:23;5.35;;;1.20;;
28166;SDS011;15455;53.376;-6.262;2023-04-06T10:38:09;4.72;;;0.90;;
28166;SDS011;15455;53.376;-6.262;2023-04-06T10:40:55;10.13;;;1.27;;
28166;SDS011;15455;53.376;-6.262;2023-04-06T10:43:56;5.15;;;0.77;;
28166;SDS011;15455;53.376;-6.262;2023-04-06T10:46:41;7.18;;;1.17;;
28166;SDS011;15455;53.376;-6.262;2023-04-06T10:49:38;5.65;;;1.02;;
28166;SDS011;15455;53.376;-6.262;2023-04-06T10:52:23;9.13;;;1.10;;
28166;SDS011;15455;53.376;-6.262;2023-04-06T10:55:09;8.38;;;0.93;;
28166;SDS011;15455;53.376;-6.262;2023-04-06T10:57:55;1.65;;;0.57;;
28166;SDS011;15455;53.376;-6.262;2023-04-06T11:00:47;4.13;;;0.70;;
28166;SDS011;15455;53.376;-6.262;2023-04-06T11:03:42;4.43;;;0.88;;
28166;SDS011;15455;53.376;-6.262;2023-04-06T11:06:29;6.43;;;0.60;;
28166;SDS011;15455;53.376;-6.262;2023-04-06T11:09:25;3.92;;;0.68;;
28166;SDS011;15455;53.376;-6.262;2023-04-06T11:15:27;1.17;;;0.50;;
28166;SDS011;15455;53.376;-6.262;2023-04-06T11:18:22;3.95;;;0.50;;
28166;SDS011;15455;53.376;-6.262;2023-04-06T11:21:07;3.58;;;0.57;;
28166;SDS011;15455;53.376;-6.262;2023-04-06T11:23:52;5.28;;;1.05;;
28166;SDS011;15455;53.376;-6.262;2023-04-06T11:26:58;8.48;;;0.73;;
28166;SDS011;15455;53.376;-6.262;2023-04-06T11:29:46;5.13;;;0.63;;
28166;SDS011;15455;53.376;-6.262;2023-04-06T11:32:39;5.47;;;0.70;;
28166;SDS011;15455;53.376;-6.262;2023-04-06T11:35:29;2.38;;;0.80;;
28166;SDS011;15455;53.376;-6.262;2023-04-06T11:38:17;3.22;;;0.85;;
28166;SDS011;15455;53.376;-6.262;2023-04-06T11:41:04;2.40;;;0.68;;
28166;SDS011;15455;53.376;-6.262;2023-04-06T11:43:50;2.67;;;1.35;;
28166;SDS011;15455;53.376;-6.262;2023-04-06T11:46:35;4.50;;;0.90;;
28166;SDS011;15455;53.376;-6.262;2023-04-06T11:49:21;7.10;;;1.05;;
28166;SDS011;15455;53.376;-6.262;2023-04-06T11:52:20;1.38;;;0.52;;
28166;SDS011;15455;53.376;-6.262;2023-04-06T11:55:11;7.55;;;0.80;;
28166;SDS011;15455;53.376;-6.262;2023-04-06T11:57:59;5.63;;;0.98;;
28166;SDS011;15455;53.376;-6.262;2023-04-06T12:00:45;6.57;;;0.82;;
28166;SDS011;15455;53.376;-6.262;2023-04-06T12:03:31;5.10;;;0.52;;
28166;SDS011;15455;53.376;-6.262;2023-04-06T12:06:17;2.28;;;0.50;;
28166;SDS011;15455;53.376;-6.262;2023-04-06T12:09:03;7.63;;;0.57;;
28166;SDS011;15455;53.376;-6.262;2023-04-06T12:11:49;5.28;;;0.82;;
28166;SDS011;15455;53.376;-6.262;2023-04-06T12:14:34;4.88;;;0.40;;
28166;SDS011;15455;53.376;-6.262;2023-04-06T12:17:20;3.88;;;0.50;;
28166;SDS011;15455;53.376;-6.262;2023-04-06T12:20:06;3.47;;;0.45;;
28166;SDS011;15455;53.376;-6.262;2023-04-06T12:23:09;4.70;;;0.60;;
28166;SDS011;15455;53.376;-6.262;2023-04-06T12:25:54;6.47;;;0.77;;
28166;SDS011;15455;53.376;-6.262;2023-04-06T12:28:40;3.08;;;0.82;;
28166;SDS011;15455;53.376;-6.262;2023-04-06T12:31:26;2.60;;;0.95;;
28166;SDS011;15455;53.376;-6.262;2023-04-06T12:34:12;3.05;;;0.77;;
28166;SDS011;15455;53.376;-6.262;2023-04-06T12:36:57;2.80;;;1.00;;
28166;SDS011;15455;53.376;-6.262;2023-04-06T12:39:43;8.90;;;0.93;;
28166;SDS011;15455;53.376;-6.262;2023-04-06T12:42:30;2.45;;;0.88;;
28166;SDS011;15455;53.376;-6.262;2023-04-06T12:45:15;0.65;;;0.50;;
28166;SDS011;15455;53.376;-6.262;2023-04-06T12:48:01;6.32;;;1.08;;
28166;SDS011;15455;53.376;-6.262;2023-04-06T12:50:53;9.52;;;1.05;;
28166;SDS011;15455;53.376;-6.262;2023-04-06T12:53:45;7.13;;;0.85;;
28166;SDS011;15455;53.376;-6.262;2023-04-06T12:56:31;2.45;;;0.88;;
28166;SDS011;15455;53.376;-6.262;2023-04-06T12:59:16;2.70;;;0.75;;
28166;SDS011;15455;53.376;-6.262;2023-04-06T13:02:02;3.65;;;1.27;;
28166;SDS011;15455;53.376;-6.262;2023-04-06T13:04:48;5.03;;;0.77;;
28166;SDS011;15455;53.376;-6.262;2023-04-06T13:07:35;4.07;;;0.70;;
28166;SDS011;15455;53.376;-6.262;2023-04-06T13:10:20;3.63;;;0.90;;
28166;SDS011;15455;53.376;-6.262;2023-04-06T13:13:06;3.50;;;0.60;;
28166;SDS011;15455;53.376;-6.262;2023-04-06T13:15:54;6.13;;;0.50;;
28166;SDS011;15455;53.376;-6.262;2023-04-06T13:21:29;2.88;;;0.63;;
28166;SDS011;15455;53.376;-6.262;2023-04-06T13:24:15;3.60;;;0.65;;
28166;SDS011;15455;53.376;-6.262;2023-04-06T13:27:01;3.90;;;0.70;;
28166;SDS011;15455;53.376;-6.262;2023-04-06T13:29:47;2.35;;;0.40;;
28166;SDS011;15455;53.376;-6.262;2023-04-06T13:32:32;2.55;;;0.45;;
28166;SDS011;15455;53.376;-6.262;2023-04-06T13:35:18;1.83;;;0.60;;
28166;SDS011;15455;53.376;-6.262;2023-04-06T13:38:03;1.70;;;0.60;;
28166;SDS011;15455;53.376;-6.262;2023-04-06T13:40:49;2.88;;;0.80;;
28166;SDS011;15455;53.376;-6.262;2023-04-06T13:43:36;2.80;;;0.52;;
28166;SDS011;15455;53.376;-6.262;2023-04-06T13:46:21;0.90;;;0.32;;
28166;SDS011;15455;53.376;-6.262;2023-04-06T13:49:09;1.73;;;0.60;;
28166;SDS011;15455;53.376;-6.262;2023-04-06T13:51:54;1.00;;;0.52;;
28166;SDS011;15455;53.376;-6.262;2023-04-06T13:54:40;3.40;;;0.40;;
28166;SDS011;15455;53.376;-6.262;2023-04-06T13:57:25;1.73;;;0.47;;
28166;SDS011;15455;53.376;-6.262;2023-04-06T14:00:11;7.22;;;0.60;;
28166;SDS011;15455;53.376;-6.262;2023-04-06T14:02:59;0.77;;;0.40;;
28166;SDS011;15455;53.376;-6.262;2023-04-06T14:05:45;0.60;;;0.30;;
28166;SDS011;15455;53.376;-6.262;2023-04-06T14:08:31;1.95;;;0.73;;
28166;SDS011;15455;53.376;-6.262;2023-04-06T14:11:16;1.75;;;0.40;;
28166;SDS011;15455;53.376;-6.262;2023-04-06T14:14:01;3.22;;;0.30;;
28166;SDS011;15455;53.376;-6.262;2023-04-06T14:16:47;0.93;;;0.40;;
28166;SDS011;15455;53.376;-6.262;2023-04-06T14:19:32;2.10;;;0.57;;
28166;SDS011;15455;53.376;-6.262;2023-04-06T14:22:18;2.90;;;0.43;;
28166;SDS011;15455;53.376;-6.262;2023-04-06T14:25:03;5.53;;;0.50;;
28166;SDS011;15455;53.376;-6.262;2023-04-06T14:27:49;1.75;;;0.50;;
28166;SDS011;15455;53.376;-6.262;2023-04-06T14:30:35;4.70;;;0.60;;
28166;SDS011;15455;53.376;-6.262;2023-04-06T14:33:20;3.00;;;0.40;;
28166;SDS011;15455;53.376;-6.262;2023-04-06T14:36:06;2.55;;;0.35;;
28166;SDS011;15455;53.376;-6.262;2023-04-06T14:38:53;4.20;;;0.43;;
28166;SDS011;15455;53.376;-6.262;2023-04-06T14:41:39;1.20;;;0.65;;
28166;SDS011;15455;53.376;-6.262;2023-04-06T14:44:24;4.28;;;0.40;;
28166;SDS011;15455;53.376;-6.262;2023-04-06T14:47:10;4.88;;;0.50;;
28166;SDS011;15455;53.376;-6.262;2023-04-06T14:49:56;1.20;;;0.35;;
28166;SDS011;15455;53.376;-6.262;2023-04-06T14:52:42;1.92;;;0.60;;
28166;SDS011;15455;53.376;-6.262;2023-04-06T14:55:28;1.55;;;0.47;;
28166;SDS011;15455;53.376;-6.262;2023-04-06T14:58:13;2.17;;;0.40;;
28166;SDS011;15455;53.376;-6.262;2023-04-06T15:00:59;3.10;;;0.70;;
28166;SDS011;15455;53.376;-6.262;2023-04-06T15:03:45;0.68;;;0.13;;
28166;SDS011;15455;53.376;-6.262;2023-04-06T15:06:32;1.08;;;0.30;;
28166;SDS011;15455;53.376;-6.262;2023-04-06T15:09:17;1.65;;;0.30;;
28166;SDS011;15455;53.376;-6.262;2023-04-06T15:12:03;1.27;;;0.30;;
28166;SDS011;15455;53.376;-6.262;2023-04-06T15:14:49;4.32;;;0.43;;
28166;SDS011;15455;53.376;-6.262;2023-04-06T15:17:35;4.85;;;0.30;;
28166;SDS011;15455;53.376;-6.262;2023-04-06T15:20:20;1.15;;;0.13;;
28166;SDS011;15455;53.376;-6.262;2023-04-06T15:23:06;0.88;;;0.30;;
28166;SDS011;15455;53.376;-6.262;2023-04-06T15:25:51;4.28;;;0.50;;
28166;SDS011;15455;53.376;-6.262;2023-04-06T15:28:37;1.48;;;0.43;;
28166;SDS011;15455;53.376;-6.262;2023-04-06T15:31:22;1.50;;;0.43;;
28166;SDS011;15455;53.376;-6.262;2023-04-06T15:34:21;1.05;;;0.38;;
28166;SDS011;15455;53.376;-6.262;2023-04-06T15:37:07;1.20;;;0.15;;
28166;SDS011;15455;53.376;-6.262;2023-04-06T15:39:53;0.65;;;0.50;;
28166;SDS011;15455;53.376;-6.262;2023-04-06T15:42:39;1.40;;;0.28;;
28166;SDS011;15455;53.376;-6.262;2023-04-06T15:45:25;2.05;;;0.47;;
28166;SDS011;15455;53.376;-6.262;2023-04-06T15:48:11;0.35;;;0.15;;
28166;SDS011;15455;53.376;-6.262;2023-04-06T15:50:57;2.22;;;0.32;;
28166;SDS011;15455;53.376;-6.262;2023-04-06T15:53:43;3.42;;;0.32;;
28166;SDS011;15455;53.376;-6.262;2023-04-06T15:56:29;2.80;;;0.43;;
28166;SDS011;15455;53.376;-6.262;2023-04-06T15:59:17;5.40;;;1.88;;
28166;SDS011;15455;53.376;-6.262;2023-04-06T16:02:02;3.13;;;0.70;;
28166;SDS011;15455;53.376;-6.262;2023-04-06T16:04:57;5.47;;;1.20;;
28166;SDS011;15455;53.376;-6.262;2023-04-06T16:07:43;3.05;;;0.45;;
28166;SDS011;15455;53.376;-6.262;2023-04-06T16:10:28;1.35;;;0.28;;
28166;SDS011;15455;53.376;-6.262;2023-04-06T16:13:14;1.85;;;0.60;;
28166;SDS011;15455;53.376;-6.262;2023-04-06T16:16:00;2.08;;;0.30;;
28166;SDS011;15455;53.376;-6.262;2023-04-06T16:18:46;1.27;;;0.73;;
28166;SDS011;15455;53.376;-6.262;2023-04-06T16:21:31;0.85;;;0.50;;
28166;SDS011;15455;53.376;-6.262;2023-04-06T16:24:16;0.77;;;0.38;;
28166;SDS011;15455;53.376;-6.262;2023-04-06T16:27:02;1.35;;;0.40;;
28166;SDS011;15455;53.376;-6.262;2023-04-06T16:29:47;2.65;;;0.40;;
28166;SDS011;15455;53.376;-6.262;2023-04-06T16:32:33;2.30;;;0.30;;
28166;SDS011;15455;53.376;-6.262;2023-04-06T16:35:18;4.05;;;0.40;;
28166;SDS011;15455;53.376;-6.262;2023-04-06T16:38:04;0.40;;;0.20;;
28166;SDS011;15455;53.376;-6.262;2023-04-06T16:41:00;0.65;;;0.30;;
28166;SDS011;15455;53.376;-6.262;2023-04-06T16:43:49;0.88;;;0.35;;
28166;SDS011;15455;53.376;-6.262;2023-04-06T16:46:35;1.65;;;0.57;;
28166;SDS011;15455;53.376;-6.262;2023-04-06T16:49:22;0.85;;;0.57;;